Time;durP1;ratioP1;P1;durP2;ratioP2;P2;SDS_P1;SDS_P2;PMS_P1;PMS_P2;Temp;Humidity;BMP_temperature;BMP_pressure;BME280_temperature;BME280_humidity;BME280_pressure;Samples;Min_cycle;Max_cycle;Signal;HPM_P1;HPM_P2
2021/07/31 00:02:08;;;;;;;4.90;2.67;;;;;;;;;;5092460;28;20072;-63
2021/07/31 00:04:53;;;;;;;9.48;2.83;;;;;;;;;;5091350;28;20043;-63
2021/07/31 00:07:38;;;;;;;9.57;3.17;;;;;;;;;;5092126;28;20097;-63
2021/07/31 00:10:24;;;;;;;6.90;2.90;;;;;;;;;;5091859;28;20036;-63
2021/07/31 00:13:09;;;;;;;7.03;2.63;;;;;;;;;;5076855;28;20559;-64
2021/07/31 00:15:54;;;;;;;6.15;2.65;;;;;;;;;;5093393;28;20071;-63
2021/07/31 00:18:40;;;;;;;7.55;3.13;;;;;;;;;;5094138;28;20070;-63
2021/07/31 00:21:25;;;;;;;8.80;3.78;;;;;;;;;;5094720;28;20044;-63
2021/07/31 00:24:11;;;;;;;5.50;2.60;;;;;;;;;;5093218;28;20222;-63
2021/07/31 00:26:56;;;;;;;8.52;2.50;;;;;;;;;;5093643;28;20085;-63
2021/07/31 00:29:42;;;;;;;9.40;3.75;;;;;;;;;;5092715;28;20169;-63
2021/07/31 00:32:27;;;;;;;6.65;3.08;;;;;;;;;;5092948;28;20047;-63
2021/07/31 00:35:13;;;;;;;8.68;3.72;;;;;;;;;;5091382;28;20032;-63
2021/07/31 00:37:58;;;;;;;7.90;3.22;;;;;;;;;;5093609;28;20089;-63
2021/07/31 00:40:44;;;;;;;6.38;3.35;;;;;;;;;;5093934;28;20591;-64
2021/07/31 00:43:29;;;;;;;7.68;3.40;;;;;;;;;;5093751;28;20119;-64
2021/07/31 00:46:14;;;;;;;6.03;3.95;;;;;;;;;;5092470;28;20051;-63
2021/07/31 00:49:00;;;;;;;9.25;4.30;;;;;;;;;;5093441;28;20046;-63
2021/07/31 00:51:48;;;;;;;8.57;3.92;;;;;;;;;;5077269;28;20048;-63
2021/07/31 00:54:34;;;;;;;9.43;4.28;;;;;;;;;;5092665;28;20117;-63
2021/07/31 00:57:20;;;;;;;7.75;3.83;;;;;;;;;;5090752;28;20048;-63
2021/07/31 01:00:35;;;;;;;14.57;5.05;;;;;;;;;;5103716;28;20051;-64
2021/07/31 01:03:21;;;;;;;13.02;5.28;;;;;;;;;;5092245;28;20046;-64
2021/07/31 01:06:06;;;;;;;8.35;4.57;;;;;;;;;;5091238;28;20486;-63
2021/07/31 01:08:52;;;;;;;11.15;5.65;;;;;;;;;;5091463;28;20044;-64
2021/07/31 01:11:41;;;;;;;8.80;5.13;;;;;;;;;;5091298;28;20667;-64
2021/07/31 01:14:26;;;;;;;10.68;5.47;;;;;;;;;;5089694;28;20055;-64
2021/07/31 01:17:12;;;;;;;11.13;5.25;;;;;;;;;;5093004;28;20120;-64
2021/07/31 01:19:57;;;;;;;12.00;5.85;;;;;;;;;;5092508;28;20062;-64
2021/07/31 01:22:43;;;;;;;11.63;6.40;;;;;;;;;;5091653;28;20135;-64
2021/07/31 01:25:29;;;;;;;9.27;5.82;;;;;;;;;;5103014;28;20505;-64
2021/07/31 01:28:15;;;;;;;11.48;5.88;;;;;;;;;;5089460;28;20055;-64
2021/07/31 01:31:01;;;;;;;11.90;5.78;;;;;;;;;;5090332;28;20076;-64
2021/07/31 01:33:46;;;;;;;14.88;6.45;;;;;;;;;;5092412;28;20044;-64
2021/07/31 01:36:32;;;;;;;12.02;6.70;;;;;;;;;;5094313;28;20052;-64
2021/07/31 01:39:18;;;;;;;14.23;7.32;;;;;;;;;;5095464;28;20040;-64
2021/07/31 01:42:05;;;;;;;12.05;6.80;;;;;;;;;;5095580;28;20135;-64
2021/07/31 01:44:54;;;;;;;15.77;6.68;;;;;;;;;;5094381;28;20473;-64
2021/07/31 01:47:40;;;;;;;13.15;6.82;;;;;;;;;;5095935;28;20113;-64
2021/07/31 01:50:26;;;;;;;13.10;7.03;;;;;;;;;;5095497;28;20055;-63
2021/07/31 01:53:12;;;;;;;12.25;7.18;;;;;;;;;;5096046;28;20098;-64
2021/07/31 01:55:58;;;;;;;11.52;8.05;;;;;;;;;;5094298;28;20047;-64
2021/07/31 01:58:46;;;;;;;12.30;7.75;;;;;;;;;;5094756;28;20040;-64
2021/07/31 02:01:32;;;;;;;14.23;7.93;;;;;;;;;;5095690;28;20056;-64
2021/07/31 02:04:19;;;;;;;12.35;7.82;;;;;;;;;;5095208;28;20048;-64
2021/07/31 02:07:24;;;;;;;11.02;8.23;;;;;;;;;;5093980;28;20487;-64
2021/07/31 02:10:09;;;;;;;17.73;8.93;;;;;;;;;;5079214;28;20051;-63
2021/07/31 02:12:55;;;;;;;13.77;8.90;;;;;;;;;;5108909;28;20048;-63
2021/07/31 02:15:45;;;;;;;14.98;8.60;;;;;;;;;;5107962;28;20117;-64
2021/07/31 02:18:35;;;;;;;15.50;9.90;;;;;;;;;;5093524;28;20044;-64
2021/07/31 02:21:23;;;;;;;21.13;11.25;;;;;;;;;;5094337;28;20077;-63
2021/07/31 02:24:43;;;;;;;14.07;10.27;;;;;;;;;;5094537;28;20059;-63
2021/07/31 02:27:50;;;;;;;19.33;10.45;;;;;;;;;;5093646;28;20059;-64
2021/07/31 02:30:36;;;;;;;15.18;8.73;;;;;;;;;;5093764;28;20406;-64
2021/07/31 02:33:23;;;;;;;13.02;8.90;;;;;;;;;;5095638;28;20119;-63
2021/07/31 02:36:13;;;;;;;21.65;10.77;;;;;;;;;;5094178;28;20468;-63
2021/07/31 02:39:05;;;;;;;14.27;9.60;;;;;;;;;;5092876;28;20044;-64
2021/07/31 02:41:50;;;;;;;17.27;10.20;;;;;;;;;;5094485;28;20421;-64
2021/07/31 02:44:36;;;;;;;14.00;10.00;;;;;;;;;;5092634;28;20474;-63
2021/07/31 02:47:26;;;;;;;17.90;10.27;;;;;;;;;;5091390;28;20086;-64
2021/07/31 02:50:11;;;;;;;17.42;9.27;;;;;;;;;;5094102;28;20051;-64
2021/07/31 02:53:09;;;;;;;14.73;8.90;;;;;;;;;;5093075;28;20402;-63
2021/07/31 02:55:55;;;;;;;13.63;9.38;;;;;;;;;;5093633;28;20559;-64
2021/07/31 02:58:41;;;;;;;12.95;9.43;;;;;;;;;;5093209;28;20387;-64
2021/07/31 03:01:27;;;;;;;19.50;10.70;;;;;;;;;;5092602;28;20453;-64
2021/07/31 03:04:12;;;;;;;15.93;9.52;;;;;;;;;;5093794;28;20058;-64
2021/07/31 03:07:01;;;;;;;16.90;10.10;;;;;;;;;;5093770;28;20075;-64
2021/07/31 03:09:47;;;;;;;15.50;10.30;;;;;;;;;;5082689;28;20051;-64
2021/07/31 03:12:33;;;;;;;16.05;10.20;;;;;;;;;;5106429;28;20048;-64
2021/07/31 03:15:20;;;;;;;14.60;9.70;;;;;;;;;;5092589;28;20123;-64
2021/07/31 03:18:05;;;;;;;21.27;11.25;;;;;;;;;;5093608;28;20077;-64
2021/07/31 03:20:52;;;;;;;17.58;10.98;;;;;;;;;;5093132;28;20048;-64
2021/07/31 03:23:44;;;;;;;15.63;10.60;;;;;;;;;;5092303;28;20177;-64
2021/07/31 03:26:32;;;;;;;17.23;11.32;;;;;;;;;;5093422;28;20105;-64
2021/07/31 03:29:19;;;;;;;17.00;10.98;;;;;;;;;;5091312;28;20142;-64
2021/07/31 03:32:06;;;;;;;11.43;10.00;;;;;;;;;;5092169;28;20063;-64
2021/07/31 03:34:51;;;;;;;20.23;10.95;;;;;;;;;;5092914;28;20066;-64
2021/07/31 03:37:37;;;;;;;16.67;10.95;;;;;;;;;;5092265;28;20040;-64
2021/07/31 03:40:22;;;;;;;17.75;11.05;;;;;;;;;;5092176;28;20051;-64
2021/07/31 03:43:07;;;;;;;17.17;10.10;;;;;;;;;;5093401;28;20502;-64
2021/07/31 03:45:53;;;;;;;15.10;10.70;;;;;;;;;;5094956;28;20051;-64
2021/07/31 03:48:42;;;;;;;15.05;9.32;;;;;;;;;;5092958;28;20048;-64
2021/07/31 03:51:27;;;;;;;16.83;9.68;;;;;;;;;;5092091;28;20098;-64
2021/07/31 03:54:15;;;;;;;12.52;9.45;;;;;;;;;;5091820;28;20048;-64
2021/07/31 03:57:20;;;;;;;16.02;9.82;;;;;;;;;;5091120;28;20044;-64
2021/07/31 04:00:08;;;;;;;15.05;10.05;;;;;;;;;;5091455;28;20489;-64
2021/07/31 04:03:00;;;;;;;17.17;9.90;;;;;;;;;;5092846;28;20040;-64
2021/07/31 04:05:46;;;;;;;16.85;9.18;;;;;;;;;;5092482;28;20046;-64
2021/07/31 04:08:54;;;;;;;15.13;9.15;;;;;;;;;;5092704;28;20044;-64
2021/07/31 04:11:59;;;;;;;14.95;10.15;;;;;;;;;;5091225;28;20138;-64
2021/07/31 04:15:03;;;;;;;15.73;10.85;;;;;;;;;;5092282;28;20501;-64
2021/07/31 04:17:48;;;;;;;17.42;11.57;;;;;;;;;;5092599;28;20048;-64
2021/07/31 04:20:36;;;;;;;18.35;12.45;;;;;;;;;;5090460;28;20072;-64
2021/07/31 04:23:22;;;;;;;17.95;11.35;;;;;;;;;;5092689;28;20075;-63
2021/07/31 04:26:13;;;;;;;14.18;10.55;;;;;;;;;;5076273;28;20127;-64
2021/07/31 04:28:58;;;;;;;13.38;9.00;;;;;;;;;;5092567;28;20527;-64
2021/07/31 04:31:45;;;;;;;15.23;9.48;;;;;;;;;;5091123;28;20039;-64
2021/07/31 04:34:30;;;;;;;17.67;10.05;;;;;;;;;;5090254;28;20036;-63
2021/07/31 04:37:15;;;;;;;13.77;9.63;;;;;;;;;;5077044;28;20044;-64
2021/07/31 04:40:00;;;;;;;14.98;10.75;;;;;;;;;;5104530;28;20074;-64
2021/07/31 04:42:45;;;;;;;13.52;9.35;;;;;;;;;;5092284;28;20125;-64
2021/07/31 04:45:31;;;;;;;16.70;10.23;;;;;;;;;;5092047;28;20624;-64
2021/07/31 04:48:16;;;;;;;16.13;9.27;;;;;;;;;;5092480;28;20085;-63
2021/07/31 04:51:02;;;;;;;19.90;9.35;;;;;;;;;;5091439;28;20121;-64
2021/07/31 04:53:47;;;;;;;20.10;9.02;;;;;;;;;;5092252;28;20040;-64
2021/07/31 04:56:33;;;;;;;17.02;9.70;;;;;;;;;;5092264;28;20102;-63
2021/07/31 04:59:18;;;;;;;18.25;9.93;;;;;;;;;;5092486;28;20044;-63
2021/07/31 05:02:04;;;;;;;16.55;10.10;;;;;;;;;;5092414;28;20414;-63
2021/07/31 05:04:49;;;;;;;20.13;9.27;;;;;;;;;;5093040;28;20048;-63
2021/07/31 05:07:34;;;;;;;13.90;7.70;;;;;;;;;;5092178;28;20055;-63
2021/07/31 05:10:20;;;;;;;14.73;7.82;;;;;;;;;;5095806;28;20044;-63
2021/07/31 05:13:05;;;;;;;14.93;7.43;;;;;;;;;;5095960;28;20040;-64
2021/07/31 05:15:51;;;;;;;15.68;7.47;;;;;;;;;;5096556;28;20043;-64
2021/07/31 05:18:36;;;;;;;13.55;6.90;;;;;;;;;;5096546;28;20036;-63
2021/07/31 05:21:21;;;;;;;17.02;7.68;;;;;;;;;;5095777;28;20130;-64
2021/07/31 05:24:07;;;;;;;11.30;6.28;;;;;;;;;;5081958;28;20059;-64
2021/07/31 05:26:52;;;;;;;13.82;6.47;;;;;;;;;;5095648;28;20054;-64
2021/07/31 05:29:37;;;;;;;15.25;5.85;;;;;;;;;;5109268;28;20048;-63
2021/07/31 05:32:22;;;;;;;12.25;4.53;;;;;;;;;;5095256;28;20063;-64
2021/07/31 05:35:08;;;;;;;17.05;5.57;;;;;;;;;;5094799;28;20059;-64
2021/07/31 05:37:53;;;;;;;17.05;5.10;;;;;;;;;;5093033;28;20102;-64
2021/07/31 05:40:39;;;;;;;16.33;5.47;;;;;;;;;;5093264;28;20036;-65
2021/07/31 05:43:24;;;;;;;9.90;5.57;;;;;;;;;;5092164;28;20051;-64
2021/07/31 05:46:10;;;;;;;14.20;6.18;;;;;;;;;;5092256;28;20040;-64
2021/07/31 05:48:55;;;;;;;12.57;5.05;;;;;;;;;;5093179;28;20059;-64
2021/07/31 05:51:40;;;;;;;10.48;5.03;;;;;;;;;;5092204;28;20057;-64
2021/07/31 05:54:26;;;;;;;18.35;5.55;;;;;;;;;;5078516;28;20098;-64
2021/07/31 05:57:11;;;;;;;12.20;5.80;;;;;;;;;;5093679;28;20261;-64
2021/07/31 05:59:56;;;;;;;11.05;5.13;;;;;;;;;;5091582;28;20044;-64
2021/07/31 06:02:42;;;;;;;13.27;5.43;;;;;;;;;;5092721;28;20189;-64
2021/07/31 06:05:28;;;;;;;11.88;5.15;;;;;;;;;;5091402;28;20056;-64
2021/07/31 06:08:13;;;;;;;15.70;5.55;;;;;;;;;;5093575;28;20052;-64
2021/07/31 06:11:02;;;;;;;11.30;5.07;;;;;;;;;;5092145;28;21365;-64
2021/07/31 06:13:47;;;;;;;14.68;5.70;;;;;;;;;;5093945;28;20048;-64
2021/07/31 06:16:32;;;;;;;10.10;5.28;;;;;;;;;;5078182;28;20051;-64
2021/07/31 06:19:18;;;;;;;8.48;5.00;;;;;;;;;;5093809;28;20040;-64
2021/07/31 06:22:03;;;;;;;12.63;5.05;;;;;;;;;;5093936;28;20058;-63
2021/07/31 06:24:48;;;;;;;15.23;5.13;;;;;;;;;;5093854;28;20449;-63
2021/07/31 06:27:34;;;;;;;16.45;5.05;;;;;;;;;;5093828;28;20070;-64
2021/07/31 06:30:19;;;;;;;14.85;5.25;;;;;;;;;;5091601;28;20459;-64
2021/07/31 06:33:05;;;;;;;12.98;5.97;;;;;;;;;;5092400;28;20404;-64
2021/07/31 06:35:50;;;;;;;14.77;5.20;;;;;;;;;;5092404;28;20118;-64
2021/07/31 06:38:36;;;;;;;17.73;6.32;;;;;;;;;;5092345;28;20055;-64
2021/07/31 06:41:21;;;;;;;18.55;4.75;;;;;;;;;;5091649;28;20385;-64
2021/07/31 06:44:06;;;;;;;16.58;4.90;;;;;;;;;;5092340;28;20039;-64
2021/07/31 06:46:52;;;;;;;12.35;5.32;;;;;;;;;;5092238;28;20482;-63
2021/07/31 06:49:37;;;;;;;17.40;5.60;;;;;;;;;;5093003;28;20056;-63
2021/07/31 06:52:23;;;;;;;13.00;4.85;;;;;;;;;;5093381;28;20532;-64
2021/07/31 06:55:08;;;;;;;14.05;5.75;;;;;;;;;;5092844;28;20077;-64
2021/07/31 06:57:53;;;;;;;19.63;6.13;;;;;;;;;;5094561;28;20123;-63
2021/07/31 07:00:39;;;;;;;19.08;6.57;;;;;;;;;;5090414;28;20055;-64
2021/07/31 07:03:24;;;;;;;15.57;5.55;;;;;;;;;;5093598;28;20166;-63
2021/07/31 07:06:10;;;;;;;12.13;4.75;;;;;;;;;;5094556;28;20040;-64
2021/07/31 07:08:56;;;;;;;15.25;5.35;;;;;;;;;;5094030;28;20170;-63
2021/07/31 07:11:42;;;;;;;16.55;6.18;;;;;;;;;;5094505;28;20047;-64
2021/07/31 07:14:27;;;;;;;20.45;5.90;;;;;;;;;;5094525;28;20042;-63
2021/07/31 07:17:13;;;;;;;15.88;5.60;;;;;;;;;;5094523;28;20047;-64
2021/07/31 07:19:58;;;;;;;19.45;6.07;;;;;;;;;;5092225;28;20044;-64
2021/07/31 07:22:43;;;;;;;19.55;5.80;;;;;;;;;;5078268;28;20127;-64
2021/07/31 07:25:28;;;;;;;14.35;5.25;;;;;;;;;;5093594;28;20058;-63
2021/07/31 07:28:13;;;;;;;13.73;4.60;;;;;;;;;;5092806;28;20783;-63
2021/07/31 07:30:59;;;;;;;16.67;5.13;;;;;;;;;;5092591;28;20418;-63
2021/07/31 07:33:44;;;;;;;14.32;5.35;;;;;;;;;;5093680;28;20137;-64
2021/07/31 07:36:30;;;;;;;18.98;5.63;;;;;;;;;;5093733;28;20673;-63
2021/07/31 07:39:15;;;;;;;14.52;5.32;;;;;;;;;;5093818;28;20418;-63
2021/07/31 07:42:00;;;;;;;14.88;4.50;;;;;;;;;;5093054;28;20058;-64
2021/07/31 07:44:45;;;;;;;18.13;5.20;;;;;;;;;;5092524;28;20059;-64
2021/07/31 07:47:31;;;;;;;16.65;4.97;;;;;;;;;;5093519;28;20036;-64
2021/07/31 07:50:16;;;;;;;14.90;5.93;;;;;;;;;;5092436;28;20040;-63
2021/07/31 07:53:02;;;;;;;18.35;5.00;;;;;;;;;;5093462;28;20169;-64
2021/07/31 07:55:47;;;;;;;13.50;4.22;;;;;;;;;;5093465;28;20097;-63
2021/07/31 07:58:32;;;;;;;13.07;4.20;;;;;;;;;;5093037;28;20052;-63
2021/07/31 08:01:18;;;;;;;15.25;3.92;;;;;;;;;;5091358;28;20133;-63
2021/07/31 08:04:03;;;;;;;11.63;4.07;;;;;;;;;;5090156;28;20043;-63
2021/07/31 08:06:49;;;;;;;11.38;3.80;;;;;;;;;;5091812;28;20051;-63
2021/07/31 08:09:37;;;;;;;13.32;4.45;;;;;;;;;;5093504;28;20046;-64
2021/07/31 08:12:22;;;;;;;12.98;4.03;;;;;;;;;;5077202;28;20500;-64
2021/07/31 08:15:08;;;;;;;11.73;3.85;;;;;;;;;;5105755;28;20047;-64
2021/07/31 08:17:53;;;;;;;12.57;4.65;;;;;;;;;;5092339;28;20044;-64
2021/07/31 08:20:38;;;;;;;14.90;4.85;;;;;;;;;;5092091;28;20040;-64
2021/07/31 08:23:24;;;;;;;12.82;5.05;;;;;;;;;;5090814;28;20490;-63
2021/07/31 08:26:12;;;;;;;15.70;4.35;;;;;;;;;;5092186;28;20529;-64
2021/07/31 08:28:57;;;;;;;16.48;5.57;;;;;;;;;;5092066;28;20052;-64
2021/07/31 08:31:42;;;;;;;16.50;4.93;;;;;;;;;;5090800;28;20482;-64
2021/07/31 08:34:28;;;;;;;18.25;5.80;;;;;;;;;;5092003;28;20075;-64
2021/07/31 08:37:13;;;;;;;20.50;5.53;;;;;;;;;;5091184;28;20052;-64
2021/07/31 08:39:58;;;;;;;17.45;5.90;;;;;;;;;;5091992;28;20051;-63
2021/07/31 08:42:44;;;;;;;13.35;5.65;;;;;;;;;;5090995;28;20124;-63
2021/07/31 08:45:30;;;;;;;11.32;4.03;;;;;;;;;;5091870;28;20051;-63
2021/07/31 08:48:15;;;;;;;15.00;4.75;;;;;;;;;;5092127;28;20058;-63
2021/07/31 08:51:01;;;;;;;9.77;4.65;;;;;;;;;;5090809;28;20114;-63
2021/07/31 08:53:46;;;;;;;13.30;4.82;;;;;;;;;;5089948;28;20056;-63
2021/07/31 08:56:32;;;;;;;10.63;4.25;;;;;;;;;;5091380;28;20052;-63
2021/07/31 08:59:17;;;;;;;12.60;4.40;;;;;;;;;;5092676;28;20535;-63
2021/07/31 09:02:02;;;;;;;10.43;4.05;;;;;;;;;;5092847;28;20121;-63
2021/07/31 09:04:49;;;;;;;7.82;4.20;;;;;;;;;;5092830;28;20490;-63
2021/07/31 09:07:34;;;;;;;8.65;3.67;;;;;;;;;;5092535;28;20044;-62
2021/07/31 09:10:23;;;;;;;9.38;3.55;;;;;;;;;;5091748;28;20046;-64
2021/07/31 09:13:08;;;;;;;9.07;3.58;;;;;;;;;;5091250;28;20072;-63
2021/07/31 09:15:54;;;;;;;8.10;3.47;;;;;;;;;;5092513;28;20059;-63
2021/07/31 09:18:43;;;;;;;10.68;4.05;;;;;;;;;;5093130;28;20048;-63
2021/07/31 09:21:28;;;;;;;8.30;3.15;;;;;;;;;;5092807;28;20410;-63
2021/07/31 09:24:26;;;;;;;12.07;2.88;;;;;;;;;;5079810;28;20119;-64
2021/07/31 09:27:26;;;;;;;10.73;3.85;;;;;;;;;;5092051;28;20041;-63
2021/07/31 09:30:11;;;;;;;6.80;2.78;;;;;;;;;;5092356;28;20051;-64
2021/07/31 09:33:03;;;;;;;10.95;3.38;;;;;;;;;;5091520;28;20123;-63
2021/07/31 09:35:48;;;;;;;9.25;3.05;;;;;;;;;;5071017;28;20493;-64
2021/07/31 09:38:37;;;;;;;10.82;3.65;;;;;;;;;;5072132;28;20052;-63
2021/07/31 09:41:29;;;;;;;5.75;3.55;;;;;;;;;;5071638;28;20052;-64
2021/07/31 09:44:15;;;;;;;11.75;4.55;;;;;;;;;;5076149;28;20047;-63
2021/07/31 09:47:01;;;;;;;13.23;4.15;;;;;;;;;;5090450;28;20047;-64
2021/07/31 09:49:46;;;;;;;7.53;3.67;;;;;;;;;;5091582;28;21518;-64
2021/07/31 09:52:33;;;;;;;11.55;5.18;;;;;;;;;;5075209;28;20166;-63
2021/07/31 09:55:18;;;;;;;8.45;2.88;;;;;;;;;;5087491;28;20486;-63
2021/07/31 09:58:03;;;;;;;8.18;2.85;;;;;;;;;;5099859;28;20055;-63
2021/07/31 10:00:49;;;;;;;9.82;2.58;;;;;;;;;;5097937;28;20381;-63
2021/07/31 10:03:34;;;;;;;4.97;1.77;;;;;;;;;;5094016;28;20413;-64
2021/07/31 10:06:20;;;;;;;6.13;2.40;;;;;;;;;;5078926;28;20047;-63
2021/07/31 10:09:07;;;;;;;5.90;1.83;;;;;;;;;;5093886;28;20043;-64
2021/07/31 10:11:52;;;;;;;5.18;2.00;;;;;;;;;;5093987;28;20498;-64
2021/07/31 10:14:38;;;;;;;5.43;2.10;;;;;;;;;;5078553;28;20040;-64
2021/07/31 10:17:27;;;;;;;10.88;2.70;;;;;;;;;;5095057;28;20040;-64
2021/07/31 10:20:22;;;;;;;8.63;2.25;;;;;;;;;;5095797;28;20051;-64
2021/07/31 10:23:07;;;;;;;7.80;2.20;;;;;;;;;;5079436;28;20051;-64
2021/07/31 10:26:19;;;;;;;10.82;2.63;;;;;;;;;;5094670;28;20052;-64
2021/07/31 10:29:23;;;;;;;7.35;2.25;;;;;;;;;;5093370;28;20040;-64
2021/07/31 10:32:20;;;;;;;6.35;2.33;;;;;;;;;;5096702;28;20051;-65
2021/07/31 10:35:06;;;;;;;7.00;2.03;;;;;;;;;;5094467;28;20097;-65
2021/07/31 10:37:52;;;;;;;6.45;2.25;;;;;;;;;;5093395;28;20574;-65
2021/07/31 10:40:41;;;;;;;7.25;2.60;;;;;;;;;;5080462;28;20048;-65
2021/07/31 10:43:29;;;;;;;6.70;2.10;;;;;;;;;;5093650;28;20074;-65
2021/07/31 10:46:19;;;;;;;7.90;2.85;;;;;;;;;;5091181;28;20036;-65
2021/07/31 10:49:24;;;;;;;8.57;2.33;;;;;;;;;;5073916;28;20055;-65
2021/07/31 10:52:09;;;;;;;8.85;2.50;;;;;;;;;;5092411;28;20040;-66
2021/07/31 10:54:59;;;;;;;8.40;2.10;;;;;;;;;;5093728;28;20048;-65
2021/07/31 10:57:53;;;;;;;10.05;2.75;;;;;;;;;;5093406;28;20060;-65
2021/07/31 11:00:38;;;;;;;6.53;2.65;;;;;;;;;;5092815;28;20047;-65
2021/07/31 11:03:25;;;;;;;6.05;1.85;;;;;;;;;;5093436;28;20047;-65
2021/07/31 11:06:12;;;;;;;7.03;2.70;;;;;;;;;;5091796;28;20043;-65
2021/07/31 11:09:24;;;;;;;5.38;2.30;;;;;;;;;;5093200;28;20059;-65
2021/07/31 11:12:28;;;;;;;7.68;2.97;;;;;;;;;;5091661;28;20485;-64
2021/07/31 11:15:14;;;;;;;8.90;3.08;;;;;;;;;;5082000;28;20410;-64
2021/07/31 11:18:00;;;;;;;11.55;4.00;;;;;;;;;;5083782;28;20043;-64
2021/07/31 11:20:45;;;;;;;10.38;4.00;;;;;;;;;;5084227;28;20129;-64
2021/07/31 11:23:30;;;;;;;11.77;3.88;;;;;;;;;;5072612;28;20059;-64
2021/07/31 11:26:34;;;;;;;7.65;4.07;;;;;;;;;;5071962;28;20033;-64
2021/07/31 11:29:23;;;;;;;7.68;3.80;;;;;;;;;;5072878;28;20047;-64
2021/07/31 11:32:12;;;;;;;7.13;3.00;;;;;;;;;;5078838;28;20047;-64
2021/07/31 11:34:57;;;;;;;5.03;2.55;;;;;;;;;;5093089;28;20182;-64
2021/07/31 11:37:42;;;;;;;4.35;2.65;;;;;;;;;;5093261;28;20040;-64
2021/07/31 11:40:28;;;;;;;3.40;1.67;;;;;;;;;;5092735;28;20050;-64
2021/07/31 11:43:13;;;;;;;4.00;2.05;;;;;;;;;;5092100;28;20075;-64
2021/07/31 11:45:58;;;;;;;3.65;3.20;;;;;;;;;;5092009;28;20142;-64
2021/07/31 11:48:47;;;;;;;5.03;2.50;;;;;;;;;;5077767;28;20047;-64
2021/07/31 11:51:32;;;;;;;4.75;2.50;;;;;;;;;;5091670;28;20036;-64
2021/07/31 11:54:17;;;;;;;6.03;3.42;;;;;;;;;;5091985;28;20516;-64
2021/07/31 11:57:02;;;;;;;6.97;3.03;;;;;;;;;;5092200;28;20091;-64
2021/07/31 11:59:47;;;;;;;7.18;2.95;;;;;;;;;;5078743;28;20418;-64
2021/07/31 12:02:34;;;;;;;6.70;2.72;;;;;;;;;;5091886;28;20513;-64
2021/07/31 12:05:37;;;;;;;7.00;2.97;;;;;;;;;;5093158;28;20055;-64
2021/07/31 12:08:22;;;;;;;6.10;3.55;;;;;;;;;;5092668;28;20047;-65
2021/07/31 12:11:08;;;;;;;6.03;3.40;;;;;;;;;;5092326;28;20124;-64
2021/07/31 12:13:54;;;;;;;5.05;2.20;;;;;;;;;;5090397;28;20044;-65
2021/07/31 12:16:39;;;;;;;6.55;2.55;;;;;;;;;;5092657;28;20124;-64
2021/07/31 12:19:26;;;;;;;4.13;2.25;;;;;;;;;;5090576;28;20049;-65
2021/07/31 12:22:12;;;;;;;4.88;2.20;;;;;;;;;;5091304;28;20048;-64
2021/07/31 12:25:16;;;;;;;6.20;2.35;;;;;;;;;;5091344;28;20050;-64
2021/07/31 12:28:06;;;;;;;3.30;2.08;;;;;;;;;;5092283;28;20055;-64
2021/07/31 12:30:51;;;;;;;4.60;1.98;;;;;;;;;;5092265;28;20108;-64
2021/07/31 12:33:41;;;;;;;3.97;2.45;;;;;;;;;;5091270;28;20043;-63
2021/07/31 12:36:27;;;;;;;2.90;2.20;;;;;;;;;;5091223;28;20040;-64
2021/07/31 12:39:12;;;;;;;2.95;1.83;;;;;;;;;;5092424;28;20508;-64
2021/07/31 12:41:57;;;;;;;4.88;2.15;;;;;;;;;;5092270;28;20040;-64
2021/07/31 12:44:43;;;;;;;2.58;1.90;;;;;;;;;;5091156;28;20047;-63
2021/07/31 12:47:28;;;;;;;5.55;1.85;;;;;;;;;;5092024;28;20119;-64
2021/07/31 12:50:13;;;;;;;4.00;1.90;;;;;;;;;;5091803;28;20046;-64
2021/07/31 12:52:59;;;;;;;5.97;2.70;;;;;;;;;;5091964;28;20070;-64
2021/07/31 12:55:45;;;;;;;4.57;1.80;;;;;;;;;;5091104;28;20414;-64
2021/07/31 12:58:30;;;;;;;4.20;1.80;;;;;;;;;;5092139;28;20067;-64
2021/07/31 13:01:16;;;;;;;5.63;1.77;;;;;;;;;;5091671;28;20538;-64
2021/07/31 13:04:01;;;;;;;4.05;1.85;;;;;;;;;;5091796;28;20058;-65
2021/07/31 13:06:46;;;;;;;5.22;2.10;;;;;;;;;;5089328;28;20055;-64
2021/07/31 13:09:31;;;;;;;2.92;1.60;;;;;;;;;;5091862;28;20482;-64
2021/07/31 13:12:16;;;;;;;2.90;1.52;;;;;;;;;;5092295;28;20043;-64
2021/07/31 13:15:03;;;;;;;2.58;1.00;;;;;;;;;;5091950;28;20040;-64
2021/07/31 13:17:48;;;;;;;1.55;0.63;;;;;;;;;;5092607;28;20615;-64
2021/07/31 13:20:37;;;;;;;1.83;0.80;;;;;;;;;;5091657;28;20043;-64
2021/07/31 13:23:22;;;;;;;2.17;1.00;;;;;;;;;;5092131;28;20125;-65
2021/07/31 13:26:08;;;;;;;1.92;0.82;;;;;;;;;;5091220;28;20135;-65
2021/07/31 13:28:53;;;;;;;0.90;0.60;;;;;;;;;;5091883;28;20074;-65
2021/07/31 13:31:40;;;;;;;1.75;0.70;;;;;;;;;;5096872;28;20412;-64
2021/07/31 13:34:25;;;;;;;1.00;0.80;;;;;;;;;;5096150;28;20050;-64
2021/07/31 13:37:21;;;;;;;2.72;0.90;;;;;;;;;;5094664;28;20043;-64
2021/07/31 13:40:34;;;;;;;3.65;1.23;;;;;;;;;;5095112;28;20069;-64
2021/07/31 13:43:15;;;;;;;1.67;0.98;;;;;;;;;;5095515;28;20051;-64
2021/07/31 13:46:00;;;;;;;6.35;1.50;;;;;;;;;;5094608;28;20055;-65
2021/07/31 13:48:46;;;;;;;3.22;1.25;;;;;;;;;;5095073;28;20422;-73
2021/07/31 13:51:31;;;;;;;5.50;1.45;;;;;;;;;;5094085;28;20036;-64
2021/07/31 13:54:16;;;;;;;4.63;1.58;;;;;;;;;;5095036;28;20055;-65
2021/07/31 13:57:01;;;;;;;2.50;1.88;;;;;;;;;;5094413;28;20040;-64
2021/07/31 13:59:47;;;;;;;3.75;1.73;;;;;;;;;;5093450;28;20170;-65
2021/07/31 14:02:32;;;;;;;3.33;1.60;;;;;;;;;;5094915;28;20936;-64
2021/07/31 14:05:17;;;;;;;4.57;2.05;;;;;;;;;;5095682;28;20051;-64
2021/07/31 14:08:03;;;;;;;6.43;1.83;;;;;;;;;;5095828;28;20118;-65
2021/07/31 14:10:49;;;;;;;3.28;1.90;;;;;;;;;;5095758;28;20125;-64
2021/07/31 14:13:34;;;;;;;3.72;1.40;;;;;;;;;;5093855;28;20066;-65
2021/07/31 14:16:20;;;;;;;5.03;1.92;;;;;;;;;;5097849;28;20036;-64
2021/07/31 14:19:05;;;;;;;2.75;1.95;;;;;;;;;;5096275;28;20047;-64
2021/07/31 14:21:50;;;;;;;2.35;1.55;;;;;;;;;;5098067;28;20047;-64
2021/07/31 14:24:36;;;;;;;3.45;1.55;;;;;;;;;;5097159;28;20577;-64
2021/07/31 14:27:21;;;;;;;3.45;2.10;;;;;;;;;;5097341;28;20441;-65
2021/07/31 14:30:07;;;;;;;4.53;2.00;;;;;;;;;;5098589;28;20084;-64
2021/07/31 14:32:52;;;;;;;2.15;1.60;;;;;;;;;;5096864;28;20071;-64
2021/07/31 14:35:37;;;;;;;3.13;1.70;;;;;;;;;;5096039;28;20044;-64
2021/07/31 14:38:23;;;;;;;4.65;1.90;;;;;;;;;;5094261;28;20048;-64
2021/07/31 14:41:08;;;;;;;3.60;2.05;;;;;;;;;;5093154;28;20512;-65
2021/07/31 14:43:54;;;;;;;3.92;1.70;;;;;;;;;;5093532;28;20040;-65
2021/07/31 14:46:39;;;;;;;2.85;1.60;;;;;;;;;;5092443;28;20040;-64
2021/07/31 14:49:25;;;;;;;2.70;1.38;;;;;;;;;;5092729;28;20498;-64
2021/07/31 14:52:10;;;;;;;2.25;1.25;;;;;;;;;;5107379;28;20047;-65
2021/07/31 14:54:55;;;;;;;7.78;2.30;;;;;;;;;;5093959;28;20515;-65
2021/07/31 14:57:41;;;;;;;6.47;2.17;;;;;;;;;;5088731;28;20557;-65
2021/07/31 15:00:26;;;;;;;4.90;1.73;;;;;;;;;;5091644;28;20044;-64
2021/07/31 15:03:11;;;;;;;5.15;1.83;;;;;;;;;;5093858;28;20055;-64
2021/07/31 15:05:56;;;;;;;3.60;1.83;;;;;;;;;;5092748;28;20063;-65
2021/07/31 15:08:42;;;;;;;5.38;2.55;;;;;;;;;;5073330;28;20163;-64
2021/07/31 15:11:27;;;;;;;3.92;1.92;;;;;;;;;;5073152;28;20122;-64
2021/07/31 15:14:13;;;;;;;3.22;1.92;;;;;;;;;;5093052;28;20138;-64
2021/07/31 15:16:58;;;;;;;4.68;1.88;;;;;;;;;;5092354;28;20077;-64
2021/07/31 15:19:44;;;;;;;3.80;2.50;;;;;;;;;;5093393;28;20051;-64
2021/07/31 15:22:29;;;;;;;5.70;2.88;;;;;;;;;;5093240;28;20044;-64
2021/07/31 15:25:14;;;;;;;4.60;2.65;;;;;;;;;;5092948;28;20039;-64
2021/07/31 15:28:02;;;;;;;4.57;2.83;;;;;;;;;;5092180;28;20046;-64
2021/07/31 15:30:47;;;;;;;6.88;3.13;;;;;;;;;;5092970;28;20236;-65
2021/07/31 15:33:32;;;;;;;5.25;2.60;;;;;;;;;;5093121;28;20557;-64
2021/07/31 15:36:18;;;;;;;2.90;2.45;;;;;;;;;;5093678;28;20166;-65
2021/07/31 15:39:03;;;;;;;4.40;2.70;;;;;;;;;;5095705;28;20119;-65
2021/07/31 15:41:48;;;;;;;5.60;2.58;;;;;;;;;;5096057;28;20051;-64
2021/07/31 15:44:34;;;;;;;7.68;2.60;;;;;;;;;;5093454;28;20054;-64
2021/07/31 15:47:19;;;;;;;5.38;2.30;;;;;;;;;;5092013;28;20047;-64
2021/07/31 15:50:09;;;;;;;5.00;3.28;;;;;;;;;;5086618;28;20043;-64
2021/07/31 15:52:54;;;;;;;6.30;3.13;;;;;;;;;;5092632;28;20402;-64
2021/07/31 15:55:39;;;;;;;5.80;2.65;;;;;;;;;;5117098;22;20055;-68
2021/07/31 15:58:25;;;;;;;4.57;3.42;;;;;;;;;;5089868;28;20051;-69
2021/07/31 16:01:13;;;;;;;4.43;2.20;;;;;;;;;;5090935;28;20036;-70
2021/07/31 16:03:59;;;;;;;4.53;2.70;;;;;;;;;;5079820;28;20070;-68
2021/07/31 16:06:45;;;;;;;5.10;2.45;;;;;;;;;;5071704;28;20045;-68
2021/07/31 16:09:38;;;;;;;6.13;2.65;;;;;;;;;;5068645;28;20059;-69
2021/07/31 16:12:23;;;;;;;7.15;3.35;;;;;;;;;;5071317;28;20060;-69
2021/07/31 16:15:09;;;;;;;4.05;2.65;;;;;;;;;;5068445;28;20076;-70
2021/07/31 16:17:54;;;;;;;4.85;2.47;;;;;;;;;;5071395;28;20044;-69
2021/07/31 16:20:40;;;;;;;7.43;2.50;;;;;;;;;;5070873;28;20040;-70
2021/07/31 16:23:27;;;;;;;5.93;3.03;;;;;;;;;;5071750;28;20055;-70
2021/07/31 16:26:12;;;;;;;3.08;2.00;;;;;;;;;;5070375;28;20044;-69
2021/07/31 16:28:57;;;;;;;4.90;2.20;;;;;;;;;;5071631;28;20127;-69
2021/07/31 16:31:42;;;;;;;5.03;2.88;;;;;;;;;;5071369;28;20051;-67
2021/07/31 16:34:28;;;;;;;6.72;2.30;;;;;;;;;;5070400;28;20117;-67